createdAt,value
2018-04-02T00:00:01.539Z,14.82
2018-04-02T00:00:36.046Z,23.25
2018-04-02T00:01:09.819Z,15.43
2018-04-02T00:01:43.557Z,14.95
2018-04-02T00:02:18.040Z,15.15
2018-04-02T00:02:52.575Z,17.20
2018-04-02T00:03:26.319Z,17.77
2018-04-02T00:04:00.149Z,15.27
2018-04-02T00:04:34.641Z,18.48
2018-04-02T00:05:09.915Z,15.95
2018-04-02T00:05:43.661Z,16.62
2018-04-02T00:06:17.400Z,14.43
2018-04-02T00:06:51.130Z,15.05
2018-04-02T00:07:24.851Z,21.25
2018-04-02T00:07:59.387Z,15.05
2018-04-02T00:08:33.215Z,15.38
2018-04-02T00:09:06.274Z,15.90
2018-04-02T00:09:40.203Z,15.73
2018-04-02T00:10:14.706Z,16.08
2018-04-02T00:10:49.585Z,15.90
2018-04-02T00:11:23.079Z,13.45
2018-04-02T00:11:56.585Z,16.25
2018-04-02T00:12:30.302Z,15.00
2018-04-02T00:13:10.948Z,12.77
2018-04-02T00:13:45.587Z,15.95
2018-04-02T00:14:19.069Z,17.10
2018-04-02T00:14:53.563Z,11.85
2018-04-02T00:15:28.259Z,19.50
2018-04-02T00:16:02.059Z,14.75
2018-04-02T00:16:35.780Z,16.48
2018-04-02T00:17:09.527Z,17.27
2018-04-02T00:17:43.247Z,16.65
2018-04-02T00:18:17.769Z,14.07
2018-04-02T00:18:51.749Z,19.12
2018-04-02T00:19:26.245Z,19.83
2018-04-02T00:19:59.961Z,14.13
2018-04-02T00:20:34.435Z,15.48
2018-04-02T00:21:08.162Z,17.75
2018-04-02T00:21:42.645Z,12.55
2018-04-02T00:22:16.422Z,18.73
2018-04-02T00:22:50.151Z,16.30
2018-04-02T00:23:24.691Z,14.10
2018-04-02T00:23:58.442Z,15.45
2018-04-02T00:24:32.324Z,14.52
2018-04-02T00:25:06.805Z,14.80
2018-04-02T00:25:40.538Z,14.45
2018-04-02T00:26:15.028Z,14.70
2018-04-02T00:26:48.747Z,14.77
2018-04-02T00:27:23.233Z,12.50
2018-04-02T00:27:56.953Z,13.05
2018-04-02T00:28:30.694Z,12.68
2018-04-02T00:29:04.425Z,12.07
2018-04-02T00:29:38.935Z,14.15
2018-04-02T00:30:12.656Z,17.45
2018-04-02T00:30:46.391Z,13.93
2018-04-02T00:31:20.125Z,20.08
2018-04-02T00:31:53.871Z,16.75
2018-04-02T00:32:27.590Z,13.55
2018-04-02T00:33:02.076Z,10.82
2018-04-02T00:33:35.828Z,15.43
2018-04-02T00:34:09.553Z,16.50
2018-04-02T00:34:44.047Z,16.98
2018-04-02T00:35:17.756Z,14.15
2018-04-02T00:35:51.490Z,15.25
2018-04-02T00:36:25.210Z,14.23
2018-04-02T00:36:58.925Z,13.73
2018-04-02T00:37:32.641Z,16.55
2018-04-02T00:38:07.173Z,20.30
2018-04-02T00:38:40.596Z,15.07
2018-04-02T00:39:14.313Z,12.82
2018-04-02T00:39:49.114Z,16.08
2018-04-02T00:40:22.837Z,14.48
2018-04-02T00:40:57.316Z,12.00
2018-04-02T00:41:30.803Z,15.95
2018-04-02T00:42:05.323Z,19.27
2018-04-02T00:42:40.642Z,15.30
2018-04-02T00:43:14.361Z,13.23
2018-04-02T00:43:48.863Z,14.82
2018-04-02T00:44:23.343Z,14.05
2018-04-02T00:44:57.116Z,11.30
2018-04-02T00:45:30.838Z,15.13
2018-04-02T00:46:04.203Z,11.80
2018-04-02T00:46:38.097Z,13.68
2018-04-02T00:47:11.831Z,14.18
2018-04-02T00:47:45.639Z,15.93
2018-04-02T00:48:19.352Z,12.65
2018-04-02T00:48:53.123Z,15.27
2018-04-02T00:49:27.771Z,18.50
2018-04-02T00:50:01.485Z,13.80
2018-04-02T00:50:35.972Z,19.92
2018-04-02T00:51:09.703Z,11.23
2018-04-02T00:51:43.425Z,13.48
2018-04-02T00:52:17.129Z,13.32
2018-04-02T00:52:50.843Z,13.75
2018-04-02T00:53:24.548Z,12.95
2018-04-02T00:53:59.074Z,14.30
2018-04-02T00:54:32.786Z,14.40
2018-04-02T00:55:06.512Z,15.70
2018-04-02T00:55:40.260Z,14.38
2018-04-02T00:56:13.998Z,15.38
2018-04-02T00:56:47.709Z,13.80
2018-04-02T00:57:22.386Z,13.55
2018-04-02T00:57:56.085Z,15.73
2018-04-02T00:58:29.787Z,12.65
2018-04-02T00:59:03.531Z,14.20
2018-04-02T00:59:37.244Z,15.90
2018-04-02T01:00:10.641Z,15.98
2018-04-02T01:00:44.365Z,12.98
2018-04-02T01:01:18.847Z,16.02
2018-04-02T01:01:52.569Z,13.55
2018-04-02T01:02:27.052Z,12.48
2018-04-02T01:03:00.772Z,11.02
2018-04-02T01:03:36.249Z,12.93
2018-04-02T01:04:09.981Z,17.65
2018-04-02T01:04:44.471Z,19.92
2018-04-02T01:05:18.243Z,13.93
2018-04-02T01:05:52.639Z,21.58
2018-04-02T01:06:26.123Z,12.52
2018-04-02T01:06:59.845Z,15.18
2018-04-02T01:07:33.654Z,14.85
2018-04-02T01:08:07.347Z,11.70
2018-04-02T01:08:41.821Z,12.23
2018-04-02T01:09:15.577Z,14.93
2018-04-02T01:09:49.314Z,15.77
2018-04-02T01:10:23.928Z,14.10
2018-04-02T01:10:57.647Z,16.30
2018-04-02T01:11:32.127Z,10.80
2018-04-02T01:12:05.972Z,15.00
2018-04-02T01:12:39.709Z,15.80
2018-04-02T01:13:13.423Z,19.65
2018-04-02T01:13:47.273Z,14.90
2018-04-02T01:14:21.006Z,19.37
2018-04-02T01:14:55.479Z,14.45
2018-04-02T01:15:29.262Z,17.90
2018-04-02T01:16:02.992Z,15.55
2018-04-02T01:16:37.480Z,16.55
2018-04-02T01:17:11.201Z,13.90
2018-04-02T01:17:45.703Z,13.62
2018-04-02T01:18:20.182Z,16.73
2018-04-02T01:18:53.906Z,22.25
2018-04-02T01:19:28.414Z,14.20
2018-04-02T01:20:04.035Z,18.95
2018-04-02T01:20:38.514Z,14.95
2018-04-02T01:21:12.248Z,14.07
2018-04-02T01:21:46.773Z,15.20
2018-04-02T01:22:20.506Z,17.60
2018-04-02T01:22:55.377Z,15.40
2018-04-02T01:23:29.896Z,14.52
2018-04-02T01:24:03.728Z,13.00
2018-04-02T01:24:37.471Z,16.17
2018-04-02T01:25:12.943Z,16.55
2018-04-02T01:25:46.659Z,16.62
2018-04-02T01:26:20.378Z,15.77
2018-04-02T01:26:54.873Z,14.15
2018-04-02T01:27:28.585Z,13.82
2018-04-02T01:28:02.317Z,14.27
2018-04-02T01:28:36.956Z,15.80
2018-04-02T01:29:10.680Z,19.25
2018-04-02T01:29:44.514Z,16.50
2018-04-02T01:30:18.248Z,17.50
2018-04-02T01:30:52.831Z,13.00
2018-04-02T01:31:26.553Z,17.02
2018-04-02T01:32:01.028Z,13.95
2018-04-02T01:32:34.745Z,16.83
2018-04-02T01:33:09.252Z,19.17
2018-04-02T01:33:42.968Z,15.77
2018-04-02T01:34:16.686Z,13.40
2018-04-02T01:34:50.705Z,20.77
2018-04-02T01:35:24.579Z,19.30
2018-04-02T01:35:58.307Z,15.50
2018-04-02T01:36:32.199Z,16.15
2018-04-02T01:37:07.565Z,16.75
2018-04-02T01:37:41.282Z,15.57
2018-04-02T01:38:14.999Z,15.20
2018-04-02T01:38:48.700Z,14.87
2018-04-02T01:39:22.428Z,16.98
2018-04-02T01:39:56.302Z,20.05
2018-04-02T01:40:33.628Z,13.35
2018-04-02T01:41:07.341Z,14.60
2018-04-02T01:41:41.043Z,16.17
2018-04-02T01:42:14.756Z,12.77
2018-04-02T01:42:49.237Z,22.55
2018-04-02T01:43:22.972Z,19.50
2018-04-02T01:43:56.698Z,13.40
2018-04-02T01:44:30.833Z,13.73
2018-04-02T01:45:05.343Z,16.27
2018-04-02T01:45:41.218Z,13.40
2018-04-02T01:46:14.926Z,17.35
2018-04-02T01:46:48.424Z,15.05
2018-04-02T01:47:22.240Z,14.98
2018-04-02T01:47:56.728Z,17.10
2018-04-02T01:48:30.449Z,14.27
2018-04-02T01:49:04.934Z,15.35
2018-04-02T01:49:38.649Z,13.32
2018-04-02T01:50:13.176Z,15.25
2018-04-02T01:50:47.658Z,12.70
2018-04-02T01:51:21.379Z,14.27
2018-04-02T01:51:55.112Z,17.02
2018-04-02T01:52:28.828Z,14.80
2018-04-02T01:53:02.546Z,21.08
2018-04-02T01:53:37.032Z,14.65
2018-04-02T01:54:10.854Z,14.68
2018-04-02T01:54:46.062Z,12.68
2018-04-02T01:55:20.577Z,13.45
2018-04-02T01:55:55.058Z,18.12
2018-04-02T01:56:28.793Z,14.68
2018-04-02T01:57:02.504Z,14.77
2018-04-02T01:57:35.979Z,13.10
2018-04-02T01:58:09.692Z,15.30
2018-04-02T01:58:43.402Z,9.55
2018-04-02T01:59:17.119Z,16.75
2018-04-02T01:59:51.591Z,12.52
2018-04-02T02:00:25.338Z,10.57
2018-04-02T02:00:59.059Z,15.10
2018-04-02T02:01:32.946Z,9.65
2018-04-02T02:02:06.512Z,12.70
2018-04-02T02:02:39.990Z,15.57
2018-04-02T02:03:13.476Z,13.60
2018-04-02T02:03:47.191Z,14.70
2018-04-02T02:04:20.915Z,14.40
2018-04-02T02:04:54.640Z,16.90
2018-04-02T02:05:29.143Z,10.75
2018-04-02T02:06:03.580Z,15.82
2018-04-02T02:06:37.050Z,13.00
2018-04-02T02:07:10.766Z,11.88
2018-04-02T02:07:44.481Z,18.23
2018-04-02T02:08:18.181Z,13.00
2018-04-02T02:08:51.886Z,9.63
2018-04-02T02:09:25.269Z,12.20
2018-04-02T02:09:59.065Z,9.55
2018-04-02T02:10:33.576Z,18.95
2018-04-02T02:11:08.053Z,11.02
2018-04-02T02:11:41.792Z,15.27
2018-04-02T02:12:16.281Z,11.75
2018-04-02T02:12:49.988Z,11.52
2018-04-02T02:13:24.468Z,11.43
2018-04-02T02:13:58.169Z,10.95
2018-04-02T02:14:32.072Z,8.95
2018-04-02T02:15:06.584Z,14.43
2018-04-02T02:15:41.069Z,14.57
2018-04-02T02:16:14.776Z,12.00
2018-04-02T02:16:49.252Z,13.73
2018-04-02T02:17:22.970Z,12.82
2018-04-02T02:17:56.671Z,11.63
2018-04-02T02:18:31.156Z,12.60
2018-04-02T02:19:04.542Z,13.30
2018-04-02T02:19:38.245Z,10.75
2018-04-02T02:20:12.508Z,12.20
2018-04-02T02:20:46.272Z,12.40
2018-04-02T02:21:19.990Z,18.42
2018-04-02T02:21:53.706Z,16.00
2018-04-02T02:22:27.201Z,16.15
2018-04-02T02:23:00.914Z,12.18
2018-04-02T02:23:35.606Z,13.45
2018-04-02T02:24:09.322Z,9.10
2018-04-02T02:24:43.052Z,10.93
2018-04-02T02:25:16.755Z,9.57
2018-04-02T02:25:50.491Z,10.45
2018-04-02T02:26:24.214Z,17.65
2018-04-02T02:26:57.924Z,11.38
2018-04-02T02:27:31.626Z,11.23
2018-04-02T02:28:05.127Z,14.90
2018-04-02T02:28:39.586Z,14.82
2018-04-02T02:29:13.284Z,10.45
2018-04-02T02:29:47.005Z,13.88
2018-04-02T02:30:20.735Z,15.40
2018-04-02T02:30:54.487Z,11.30
2018-04-02T02:31:28.190Z,11.57
2018-04-02T02:32:02.667Z,12.10
2018-04-02T02:32:36.373Z,11.93
2018-04-02T02:33:10.086Z,9.15
2018-04-02T02:33:44.627Z,12.63
2018-04-02T02:34:18.476Z,10.40
2018-04-02T02:34:52.197Z,14.13
2018-04-02T02:35:25.978Z,15.65
2018-04-02T02:36:00.517Z,9.50
2018-04-02T02:36:34.254Z,17.45
2018-04-02T02:37:07.963Z,14.00
2018-04-02T02:37:42.444Z,14.80
2018-04-02T02:38:16.150Z,9.02
2018-04-02T02:38:50.646Z,12.43
2018-04-02T02:39:24.381Z,13.27
2018-04-02T02:39:58.100Z,12.25
2018-04-02T02:40:31.830Z,9.80
2018-04-02T02:41:05.571Z,8.73
2018-04-02T02:41:39.273Z,9.60
2018-04-02T02:42:12.448Z,12.10
2018-04-02T02:42:46.182Z,10.75
2018-04-02T02:43:20.660Z,10.80
2018-04-02T02:43:54.404Z,9.65
2018-04-02T02:44:28.135Z,11.12
2018-04-02T02:45:01.625Z,13.98
2018-04-02T02:45:35.099Z,9.40
2018-04-02T02:46:08.842Z,9.07
2018-04-02T02:46:43.326Z,11.90
2018-04-02T02:47:16.836Z,12.70
2018-04-02T02:47:51.091Z,12.77
2018-04-02T02:48:24.798Z,10.13
2018-04-02T02:48:58.518Z,11.12
2018-04-02T02:49:33.004Z,10.82
2018-04-02T02:50:06.731Z,11.93
2018-04-02T02:50:41.221Z,8.60
2018-04-02T02:51:15.423Z,13.38
2018-04-02T02:51:49.913Z,13.60
2018-04-02T02:52:23.660Z,10.70
2018-04-02T02:52:57.371Z,12.85
2018-04-02T02:53:31.124Z,10.35
2018-04-02T02:54:04.846Z,12.60
2018-04-02T02:54:38.556Z,9.60
2018-04-02T02:55:12.261Z,12.40
2018-04-02T02:55:45.986Z,10.55
2018-04-02T02:56:19.747Z,12.27
2018-04-02T02:56:53.470Z,10.68
2018-04-02T02:57:27.196Z,12.13
2018-04-02T02:58:01.036Z,10.57
2018-04-02T02:58:35.518Z,14.25
2018-04-02T02:59:09.236Z,11.77
2018-04-02T02:59:43.717Z,9.75
2018-04-02T03:00:17.428Z,9.50
2018-04-02T03:00:51.137Z,14.73
2018-04-02T03:01:24.958Z,11.68
2018-04-02T03:01:58.684Z,15.02
2018-04-02T03:02:32.420Z,10.25
2018-04-02T03:03:06.136Z,15.98
2018-04-02T03:03:39.860Z,11.30
2018-04-02T03:04:13.579Z,12.68
2018-04-02T03:04:48.086Z,10.25
2018-04-02T03:05:21.982Z,14.77
2018-04-02T03:05:56.247Z,12.25
2018-04-02T03:06:30.180Z,15.05
2018-04-02T03:07:04.701Z,13.27
2018-04-02T03:07:38.423Z,18.23
2018-04-02T03:08:12.142Z,11.98
2018-04-02T03:08:45.888Z,14.00
2018-04-02T03:09:19.624Z,11.10
2018-04-02T03:09:53.319Z,9.88
2018-04-02T03:10:27.068Z,13.30
2018-04-02T03:11:00.788Z,14.07
2018-04-02T03:11:34.518Z,10.88
2018-04-02T03:12:08.994Z,10.50
2018-04-02T03:12:42.704Z,13.10
2018-04-02T03:13:16.409Z,11.23
2018-04-02T03:13:50.654Z,11.70
2018-04-02T03:14:24.370Z,11.80
2018-04-02T03:14:58.092Z,12.23
2018-04-02T03:15:32.571Z,12.55
2018-04-02T03:16:06.309Z,14.60
2018-04-02T03:16:40.068Z,10.98
2018-04-02T03:17:13.780Z,13.18
2018-04-02T03:17:47.508Z,14.75
2018-04-02T03:18:21.581Z,20.83
2018-04-02T03:18:55.313Z,12.37
2018-04-02T03:19:29.052Z,14.68
2018-04-02T03:20:02.777Z,12.88
2018-04-02T03:20:36.490Z,13.80
2018-04-02T03:21:10.216Z,15.77
2018-04-02T03:21:44.818Z,11.45
2018-04-02T03:22:19.303Z,13.52
2018-04-02T03:22:53.014Z,13.45
2018-04-02T03:23:26.778Z,11.68
2018-04-02T03:24:00.506Z,11.98
2018-04-02T03:24:35.020Z,15.32
2018-04-02T03:25:08.752Z,18.08
2018-04-02T03:25:42.492Z,12.95
2018-04-02T03:26:16.977Z,11.43
2018-04-02T03:26:50.730Z,13.32
2018-04-02T03:27:24.441Z,13.85
2018-04-02T03:27:58.174Z,14.63
2018-04-02T03:28:32.431Z,17.20
2018-04-02T03:29:06.165Z,13.05
2018-04-02T03:29:39.902Z,14.43
2018-04-02T03:30:13.619Z,15.50
2018-04-02T03:30:47.321Z,11.88
2018-04-02T03:31:21.029Z,13.57
2018-04-02T03:31:55.542Z,12.75
2018-04-02T03:32:30.026Z,14.50
2018-04-02T03:33:03.742Z,10.98
2018-04-02T03:33:38.218Z,11.65
2018-04-02T03:34:11.938Z,15.52
2018-04-02T03:34:46.480Z,13.13
2018-04-02T03:35:20.196Z,15.18
2018-04-02T03:35:53.901Z,13.73
2018-04-02T03:36:27.622Z,13.52
2018-04-02T03:37:02.125Z,11.85
2018-04-02T03:37:36.597Z,16.98
2018-04-02T03:38:10.300Z,11.43
2018-04-02T03:38:44.018Z,13.70
2018-04-02T03:39:18.498Z,13.23
2018-04-02T03:39:52.209Z,12.50
2018-04-02T03:40:26.711Z,13.62
2018-04-02T03:41:01.201Z,20.80
2018-04-02T03:41:34.938Z,12.57
2018-04-02T03:42:08.682Z,11.88
2018-04-02T03:42:42.396Z,13.65
2018-04-02T03:43:16.118Z,14.32
2018-04-02T03:43:49.828Z,14.52
2018-04-02T03:44:23.544Z,16.02
2018-04-02T03:44:57.278Z,12.32
2018-04-02T03:45:31.014Z,13.98
2018-04-02T03:46:04.393Z,16.10
2018-04-02T03:46:38.107Z,12.85
2018-04-02T03:47:11.844Z,13.30
2018-04-02T03:47:45.582Z,16.08
2018-04-02T03:48:19.300Z,15.50
2018-04-02T03:48:53.448Z,15.40
2018-04-02T03:49:27.161Z,14.43
2018-04-02T03:50:00.874Z,14.13
2018-04-02T03:50:35.370Z,14.25
2018-04-02T03:51:09.090Z,14.20
2018-04-02T03:51:43.569Z,13.75
2018-04-02T03:52:17.319Z,14.98
2018-04-02T03:52:51.038Z,14.20
2018-04-02T03:53:24.530Z,12.98
2018-04-02T03:53:58.450Z,17.27
2018-04-02T03:54:32.934Z,17.33
2018-04-02T03:55:06.684Z,13.70
2018-04-02T03:55:40.394Z,11.95
2018-04-02T03:56:14.104Z,16.10
2018-04-02T03:56:47.846Z,14.50
2018-04-02T03:57:21.587Z,13.13
2018-04-02T03:57:55.300Z,14.55
2018-04-02T03:58:29.790Z,13.50
2018-04-02T03:59:03.512Z,14.27
2018-04-02T03:59:38.010Z,17.98
2018-04-02T04:00:12.504Z,14.95
2018-04-02T04:00:46.224Z,13.30
2018-04-02T04:01:20.695Z,12.07
2018-04-02T04:01:54.411Z,14.50
2018-04-02T04:02:28.616Z,17.50
2018-04-02T04:03:03.102Z,13.65
2018-04-02T04:03:36.822Z,16.73
2018-04-02T04:04:10.552Z,14.52
2018-04-02T04:04:44.270Z,16.23
2018-04-02T04:05:17.981Z,17.87
2018-04-02T04:05:52.466Z,17.98
2018-04-02T04:06:26.184Z,13.05
2018-04-02T04:07:00.686Z,13.30
2018-04-02T04:07:35.202Z,15.20
2018-04-02T04:08:09.682Z,17.75
2018-04-02T04:08:43.404Z,11.48
2018-04-02T04:09:17.878Z,18.98
2018-04-02T04:09:51.596Z,12.82
2018-04-02T04:10:26.076Z,11.25
2018-04-02T04:10:59.802Z,14.18
2018-04-02T04:11:34.274Z,12.18
2018-04-02T04:12:07.993Z,15.63
2018-04-02T04:12:42.504Z,14.75
2018-04-02T04:13:16.978Z,12.32
2018-04-02T04:13:50.698Z,14.85
2018-04-02T04:14:25.178Z,15.18
2018-04-02T04:14:58.876Z,11.12
2018-04-02T04:15:32.596Z,13.57
2018-04-02T04:16:07.206Z,14.13
2018-04-02T04:16:41.687Z,15.95
2018-04-02T04:17:15.400Z,15.30
2018-04-02T04:17:49.142Z,12.00
2018-04-02T04:18:22.858Z,19.02
2018-04-02T04:18:56.607Z,15.32
2018-04-02T04:19:30.327Z,15.18
2018-04-02T04:20:03.713Z,12.85
2018-04-02T04:20:37.414Z,12.73
2018-04-02T04:21:11.151Z,16.50
2018-04-02T04:21:44.896Z,22.40
2018-04-02T04:22:18.615Z,15.73
2018-04-02T04:22:53.133Z,13.45
2018-04-02T04:23:27.808Z,12.32
2018-04-02T04:24:01.546Z,12.82
2018-04-02T04:24:35.234Z,13.57
2018-04-02T04:25:08.951Z,11.18
2018-04-02T04:25:42.663Z,14.07
2018-04-02T04:26:16.420Z,15.25
2018-04-02T04:26:49.905Z,13.48
2018-04-02T04:27:23.392Z,16.27
2018-04-02T04:27:57.250Z,14.55
2018-04-02T04:28:31.758Z,14.57
2018-04-02T04:29:06.240Z,19.15
2018-04-02T04:29:39.955Z,14.43
2018-04-02T04:30:14.432Z,17.95
2018-04-02T04:30:48.176Z,17.92
2018-04-02T04:31:21.890Z,13.70
2018-04-02T04:31:55.608Z,14.27
2018-04-02T04:32:29.327Z,18.77
2018-04-02T04:33:03.841Z,16.40
2018-04-02T04:33:38.323Z,17.45
2018-04-02T04:34:12.038Z,16.95
2018-04-02T04:34:46.522Z,22.40
2018-04-02T04:35:20.244Z,20.17
2018-04-02T04:35:54.732Z,15.70
2018-04-02T04:36:30.071Z,20.00
2018-04-02T04:37:04.550Z,17.85
2018-04-02T04:37:38.274Z,17.40
2018-04-02T04:38:12.800Z,16.42
2018-04-02T04:38:46.570Z,15.18
2018-04-02T04:39:21.051Z,15.65
2018-04-02T04:39:54.774Z,15.27
2018-04-02T04:40:29.317Z,17.55
2018-04-02T04:41:03.185Z,16.50
2018-04-02T04:41:37.673Z,15.23
2018-04-02T04:42:11.404Z,17.75
2018-04-02T04:42:45.127Z,17.27
2018-04-02T04:43:18.885Z,19.20
2018-04-02T04:43:52.607Z,16.27
2018-04-02T04:44:26.344Z,17.67
2018-04-02T04:45:00.826Z,22.17
2018-04-02T04:45:34.557Z,20.80
2018-04-02T04:46:08.277Z,18.75
2018-04-02T04:46:42.008Z,18.00
2018-04-02T04:47:16.488Z,22.27
2018-04-02T04:47:50.216Z,20.48
2018-04-02T04:48:24.746Z,17.27
2018-04-02T04:48:58.483Z,21.23
2018-04-02T04:49:32.212Z,20.10
2018-04-02T04:50:06.466Z,19.77
2018-04-02T04:50:39.970Z,19.52
2018-04-02T04:51:13.689Z,19.02
2018-04-02T04:51:48.181Z,20.20
2018-04-02T04:52:21.906Z,21.83
2018-04-02T04:52:55.645Z,18.65
2018-04-02T04:53:29.393Z,19.85
2018-04-02T04:54:03.114Z,22.10
2018-04-02T04:54:36.830Z,19.27
2018-04-02T04:55:10.570Z,23.23
2018-04-02T04:55:44.294Z,22.67
2018-04-02T04:56:18.028Z,19.83
2018-04-02T04:56:52.515Z,23.35
2018-04-02T04:57:26.243Z,19.65
2018-04-02T04:57:59.981Z,23.23
2018-04-02T04:58:33.749Z,22.15
2018-04-02T04:59:07.547Z,22.17
2018-04-02T04:59:41.270Z,20.15
2018-04-02T05:00:15.087Z,23.05
2018-04-02T05:00:49.569Z,21.55
2018-04-02T05:01:23.298Z,21.40
2018-04-02T05:01:57.771Z,25.35
2018-04-02T05:02:31.506Z,22.52
2018-04-02T05:03:05.232Z,19.52
2018-04-02T05:03:39.004Z,19.77
2018-04-02T05:04:12.732Z,20.52
2018-04-02T05:04:46.460Z,22.10
2018-04-02T05:05:20.710Z,25.60
2018-04-02T05:05:54.447Z,21.50
2018-04-02T05:06:28.934Z,20.85
2018-04-02T05:07:02.654Z,22.87
2018-04-02T05:07:36.396Z,20.52
2018-04-02T05:08:10.123Z,25.52
2018-04-02T05:08:44.653Z,18.58
2018-04-02T05:09:18.382Z,20.05
2018-04-02T05:09:52.110Z,23.77
2018-04-02T05:10:26.595Z,19.70
2018-04-02T05:11:00.322Z,24.58
2018-04-02T05:11:34.069Z,19.00
2018-04-02T05:12:07.821Z,22.60
2018-04-02T05:12:41.541Z,17.12
2018-04-02T05:13:15.027Z,18.37
2018-04-02T05:13:48.783Z,21.87
2018-04-02T05:14:22.511Z,19.42
2018-04-02T05:14:56.227Z,15.13
2018-04-02T05:15:29.945Z,17.85
2018-04-02T05:16:03.684Z,18.12
2018-04-02T05:16:37.411Z,16.85
2018-04-02T05:17:11.892Z,16.83
2018-04-02T05:17:45.621Z,19.35
2018-04-02T05:18:20.140Z,16.73
2018-04-02T05:18:53.884Z,17.08
2018-04-02T05:19:27.782Z,21.83
2018-04-02T05:20:01.554Z,18.50
2018-04-02T05:20:35.306Z,17.55
2018-04-02T05:21:08.809Z,24.73
2018-04-02T05:21:42.297Z,16.95
2018-04-02T05:22:16.047Z,19.27
2018-04-02T05:22:50.545Z,17.37
2018-04-02T05:23:24.472Z,16.98
2018-04-02T05:23:58.225Z,20.42
2018-04-02T05:24:31.733Z,19.27
2018-04-02T05:25:06.245Z,18.15
2018-04-02T05:25:40.744Z,20.45
2018-04-02T05:26:15.241Z,18.73
2018-04-02T05:26:48.962Z,15.77
2018-04-02T05:27:22.698Z,16.98
2018-04-02T05:27:56.427Z,18.40
2018-04-02T05:28:30.914Z,18.62
2018-04-02T05:29:04.663Z,16.33
2018-04-02T05:29:38.399Z,18.62
2018-04-02T05:30:12.122Z,15.45
2018-04-02T05:30:46.612Z,15.48
2018-04-02T05:31:20.351Z,17.25
2018-04-02T05:31:54.087Z,15.60
2018-04-02T05:32:27.826Z,17.92
2018-04-02T05:33:01.548Z,17.00
2018-04-02T05:33:35.274Z,15.07
2018-04-02T05:34:09.790Z,18.17
2018-04-02T05:34:44.279Z,13.48
2018-04-02T05:35:18.006Z,17.98
2018-04-02T05:35:51.732Z,18.83
2018-04-02T05:36:25.460Z,20.40
2018-04-02T05:36:59.963Z,19.40
2018-04-02T05:37:34.462Z,19.95
2018-04-02T05:38:08.235Z,17.80
2018-04-02T05:38:41.965Z,16.98
2018-04-02T05:39:16.491Z,21.73
2018-04-02T05:39:50.236Z,17.20
2018-04-02T05:40:23.966Z,19.90
2018-04-02T05:40:58.455Z,16.73
2018-04-02T05:41:32.934Z,18.12
2018-04-02T05:42:06.647Z,17.05
2018-04-02T05:42:40.378Z,18.40
2018-04-02T05:43:14.098Z,16.65
2018-04-02T05:43:47.922Z,19.23
2018-04-02T05:44:21.681Z,15.30
2018-04-02T05:44:55.410Z,16.77
2018-04-02T05:45:29.144Z,17.08
2018-04-02T05:46:02.890Z,19.52
2018-04-02T05:46:36.606Z,16.85
2018-04-02T05:47:10.339Z,17.42
2018-04-02T05:47:44.053Z,16.80
2018-04-02T05:48:17.820Z,18.20
2018-04-02T05:48:51.538Z,17.37
2018-04-02T05:49:25.304Z,19.33
2018-04-02T05:49:59.027Z,15.52
2018-04-02T05:50:32.778Z,18.80
2018-04-02T05:51:06.490Z,16.65
2018-04-02T05:51:40.221Z,22.13
2018-04-02T05:52:14.707Z,19.40
2018-04-02T05:52:48.432Z,15.73
2018-04-02T05:53:22.159Z,19.73
2018-04-02T05:53:55.893Z,20.35
2018-04-02T05:54:30.423Z,16.33
2018-04-02T05:55:04.143Z,16.75
2018-04-02T05:55:38.656Z,19.17
2018-04-02T05:56:12.371Z,16.23
2018-04-02T05:56:46.160Z,18.15
2018-04-02T05:57:20.019Z,18.02
2018-04-02T05:57:53.520Z,19.23
2018-04-02T05:58:27.247Z,18.05
2018-04-02T05:59:01.750Z,17.02
2018-04-02T05:59:35.517Z,18.25
2018-04-02T06:00:09.243Z,16.83
2018-04-02T06:00:43.731Z,19.20
2018-04-02T06:01:17.466Z,18.30
2018-04-02T06:01:51.189Z,19.02
2018-04-02T06:02:24.915Z,18.45
2018-04-02T06:02:59.409Z,17.95
2018-04-02T06:03:33.135Z,17.52
2018-04-02T06:04:07.640Z,17.58
2018-04-02T06:04:41.407Z,19.15
2018-04-02T06:05:15.160Z,21.33
2018-04-02T06:05:49.817Z,19.10
2018-04-02T06:06:23.535Z,22.90
2018-04-02T06:06:57.259Z,18.70
2018-04-02T06:07:30.978Z,17.50
2018-04-02T06:08:04.707Z,17.98
2018-04-02T06:08:38.447Z,20.08
2018-04-02T06:09:12.160Z,19.60
2018-04-02T06:09:45.916Z,22.45
2018-04-02T06:10:19.667Z,16.87
2018-04-02T06:10:54.177Z,19.92
2018-04-02T06:11:28.455Z,21.70
2018-04-02T06:12:02.185Z,17.12
2018-04-02T06:12:35.909Z,22.08
2018-04-02T06:13:09.623Z,20.45
2018-04-02T06:13:43.348Z,20.85
2018-04-02T06:14:17.075Z,17.42
2018-04-02T06:14:50.851Z,18.40
2018-04-02T06:15:24.619Z,22.33
2018-04-02T06:15:59.094Z,20.02
2018-04-02T06:16:32.837Z,19.70
2018-04-02T06:17:06.554Z,19.27
2018-04-02T06:17:40.295Z,18.67
2018-04-02T06:18:14.805Z,20.15
2018-04-02T06:18:49.313Z,18.98
2018-04-02T06:19:23.825Z,21.87
2018-04-02T06:19:58.342Z,19.92
2018-04-02T06:20:32.063Z,22.17
2018-04-02T06:21:05.450Z,19.80
2018-04-02T06:21:39.167Z,23.73
2018-04-02T06:22:12.911Z,20.83
2018-04-02T06:22:46.643Z,17.90
2018-04-02T06:23:20.380Z,26.00
2018-04-02T06:23:54.103Z,21.62
2018-04-02T06:24:27.847Z,24.25
2018-04-02T06:25:02.388Z,22.42
2018-04-02T06:25:36.116Z,20.90
2018-04-02T06:26:09.857Z,21.75
2018-04-02T06:26:43.587Z,21.83
2018-04-02T06:27:17.309Z,26.10
2018-04-02T06:27:51.807Z,22.55
2018-04-02T06:28:25.281Z,23.48
2018-04-02T06:28:59.055Z,21.70
2018-04-02T06:29:32.771Z,24.02
2018-04-02T06:30:06.528Z,25.50
2018-04-02T06:30:40.239Z,31.12
2018-04-02T06:31:13.299Z,25.62
2018-04-02T06:31:47.020Z,23.85
2018-04-02T06:32:20.763Z,22.20
2018-04-02T06:32:54.489Z,31.05
2018-04-02T06:33:28.215Z,26.23
2018-04-02T06:34:02.707Z,24.05
2018-04-02T06:34:36.441Z,24.92
2018-04-02T06:35:10.178Z,27.77
2018-04-02T06:35:43.895Z,25.33
2018-04-02T06:36:17.633Z,26.37
2018-04-02T06:36:51.360Z,25.42
2018-04-02T06:37:24.847Z,25.98
2018-04-02T06:37:58.572Z,23.25
2018-04-02T06:38:33.074Z,25.73
2018-04-02T06:39:07.551Z,25.85
2018-04-02T06:39:41.268Z,23.87
2018-04-02T06:40:15.791Z,27.98
2018-04-02T06:40:49.511Z,26.50
2018-04-02T06:41:23.229Z,25.27
2018-04-02T06:41:56.939Z,24.98
2018-04-02T06:42:31.427Z,24.35
2018-04-02T06:43:05.147Z,22.77
2018-04-02T06:43:39.631Z,23.40
2018-04-02T06:44:13.357Z,23.90
2018-04-02T06:44:47.081Z,24.67
2018-04-02T06:45:20.827Z,24.90
2018-04-02T06:45:55.319Z,27.62
2018-04-02T06:46:29.049Z,27.55
2018-04-02T06:47:02.765Z,26.98
2018-04-02T06:47:36.489Z,27.08
2018-04-02T06:48:10.213Z,26.05
2018-04-02T06:48:43.931Z,24.55
2018-04-02T06:49:17.515Z,22.42
2018-04-02T06:49:51.243Z,24.12
2018-04-02T06:50:25.007Z,27.90
2018-04-02T06:50:58.747Z,24.58
2018-04-02T06:51:33.235Z,26.92
2018-04-02T06:52:06.967Z,25.05
2018-04-02T06:52:40.684Z,26.83
2018-04-02T06:53:14.409Z,26.45
2018-04-02T06:53:48.180Z,26.45
2018-04-02T06:54:21.895Z,24.60
2018-04-02T06:54:55.607Z,26.62
2018-04-02T06:55:30.117Z,26.08
2018-04-02T06:56:04.601Z,23.50
2018-04-02T06:56:38.325Z,24.75
2018-04-02T06:57:12.048Z,26.75
2018-04-02T06:57:45.787Z,25.55
2018-04-02T06:58:20.270Z,27.27
2018-04-02T06:58:53.994Z,29.23
2018-04-02T06:59:28.478Z,29.25
2018-04-02T07:00:03.411Z,30.50
2018-04-02T07:00:37.935Z,28.73
2018-04-02T07:01:12.198Z,25.90
2018-04-02T07:01:45.932Z,24.37
2018-04-02T07:02:20.081Z,26.60
2018-04-02T07:02:53.789Z,29.70
2018-04-02T07:03:27.288Z,24.63
2018-04-02T07:04:00.995Z,24.92
2018-04-02T07:04:35.137Z,25.88
2018-04-02T07:05:09.052Z,32.25
2018-04-02T07:05:42.789Z,26.48
2018-04-02T07:06:16.527Z,25.10
2018-04-02T07:06:50.254Z,30.92
2018-04-02T07:07:24.736Z,32.00
2018-04-02T07:07:58.460Z,25.88
2018-04-02T07:08:32.983Z,28.52
2018-04-02T07:09:07.405Z,24.40
2018-04-02T07:09:41.109Z,25.92
2018-04-02T07:10:14.847Z,29.83
2018-04-02T07:10:49.359Z,27.62
2018-04-02T07:11:23.845Z,28.25
2018-04-02T07:11:57.578Z,25.62
2018-04-02T07:12:31.313Z,30.95
2018-04-02T07:13:05.037Z,30.08
2018-04-02T07:13:38.764Z,27.00
2018-04-02T07:14:12.477Z,25.50
2018-04-02T07:14:46.191Z,25.65
2018-04-02T07:15:19.905Z,26.75
2018-04-02T07:15:54.436Z,27.55
2018-04-02T07:16:28.179Z,23.70
2018-04-02T07:17:01.905Z,26.87
2018-04-02T07:17:36.398Z,25.67